Time;durP1;ratioP1;P1;durP2;ratioP2;P2;SDS_P1;SDS_P2;PMS_P1;PMS_P2;Temp;Humidity;BMP_temperature;BMP_pressure;BME280_temperature;BME280_humidity;BME280_pressure;Samples;Min_cycle;Max_cycle;Signal;HPM_P1;HPM_P2
2022/07/11 00:02:25;;;;;;;2.37;1.00;;;;;;;16.71;100.00;96931.81;5070827;27;103175;-62
2022/07/11 00:04:52;;;;;;;3.07;0.93;;;;;;;16.86;100.00;96922.88;5053371;27;102175;-62
2022/07/11 00:07:20;;;;;;;1.00;0.90;;;;;;;16.82;100.00;96928.00;5071590;27;102931;-62
2022/07/11 00:09:47;;;;;;;1.20;1.00;;;;;;;16.84;100.00;96916.97;5052165;27;103768;-62
2022/07/11 00:12:15;;;;;;;2.47;1.03;;;;;;;16.36;100.00;96917.69;5074683;27;101937;-62
2022/07/11 00:14:43;;;;;;;1.57;1.00;;;;;;;16.70;100.00;96916.78;5052591;27;105478;-62
2022/07/11 00:17:10;;;;;;;1.03;0.80;;;;;;;16.41;100.00;96913.13;5052724;27;101875;-62
2022/07/11 00:19:39;;;;;;;1.37;0.90;;;;;;;16.47;100.00;96919.28;5071488;27;102369;-62
2022/07/11 00:22:07;;;;;;;1.63;0.90;;;;;;;16.60;100.00;96913.31;5070975;27;102989;-62
2022/07/11 00:24:35;;;;;;;2.00;1.10;;;;;;;16.44;100.00;96909.09;5071467;27;101840;-62
2022/07/11 00:27:02;;;;;;;1.03;0.90;;;;;;;16.53;100.00;96912.81;5052808;27;103717;-62
2022/07/11 00:29:30;;;;;;;3.80;1.00;;;;;;;16.68;100.00;96912.75;5052003;27;105907;-62
2022/07/11 00:31:57;;;;;;;2.60;1.17;;;;;;;16.74;100.00;96909.75;5071525;27;102101;-62
2022/07/11 00:34:24;;;;;;;0.93;0.80;;;;;;;16.48;100.00;96907.47;5055709;27;105162;-62
2022/07/11 00:36:53;;;;;;;2.30;1.03;;;;;;;16.55;100.00;96905.28;5071373;27;101833;-62
2022/07/11 00:39:20;;;;;;;2.10;1.00;;;;;;;16.70;100.00;96907.91;5071021;27;102549;-62
2022/07/11 00:41:48;;;;;;;2.20;1.10;;;;;;;16.76;100.00;96899.56;5070242;27;102588;-62
2022/07/11 00:44:15;;;;;;;1.57;1.10;;;;;;;16.48;100.00;96902.09;5071189;27;102322;-62
2022/07/11 00:46:43;;;;;;;1.43;0.90;;;;;;;16.44;100.00;96892.97;5071227;27;102578;-62
2022/07/11 00:49:10;;;;;;;1.80;1.10;;;;;;;16.76;100.00;96901.41;5070582;27;102616;-62
2022/07/11 00:51:37;;;;;;;2.30;0.90;;;;;;;16.82;100.00;96895.75;5071194;27;101782;-62
2022/07/11 00:54:08;;;;;;;2.27;1.00;;;;;;;16.86;100.00;96887.94;5071037;27;102381;-62
2022/07/11 00:56:36;;;;;;;1.77;0.90;;;;;;;16.77;100.00;96892.28;5073871;27;104700;-62
2022/07/11 00:59:03;;;;;;;3.80;1.10;;;;;;;16.81;100.00;96887.97;5071236;27;102608;-62
2022/07/11 01:01:30;;;;;;;2.00;1.10;;;;;;;16.88;100.00;96891.16;5070455;27;103268;-62
2022/07/11 01:03:57;;;;;;;1.60;1.00;;;;;;;16.93;100.00;96891.94;5070751;27;101826;-62
2022/07/11 01:06:24;;;;;;;1.93;1.10;;;;;;;16.69;100.00;96884.81;5070917;27;102622;-62
2022/07/11 01:08:51;;;;;;;2.43;1.10;;;;;;;16.78;100.00;96883.16;5051740;27;105818;-62
2022/07/11 01:11:20;;;;;;;1.63;1.10;;;;;;;16.85;100.00;96883.66;5051868;27;101867;-62
2022/07/11 01:13:47;;;;;;;2.67;1.27;;;;;;;16.65;100.00;96881.06;5052300;27;103770;-62
2022/07/11 01:16:16;;;;;;;4.07;1.50;;;;;;;16.69;100.00;96884.81;5070173;27;102561;-62
2022/07/11 01:18:46;;;;;;;0.97;0.93;;;;;;;16.68;100.00;96880.53;5074398;27;101745;-62
2022/07/11 01:21:24;;;;;;;2.53;1.00;;;;;;;16.79;100.00;96874.03;5051669;27;105600;-62
2022/07/11 01:23:54;;;;;;;2.10;1.20;;;;;;;16.66;100.00;96874.63;5070835;27;101734;-62
2022/07/11 01:26:22;;;;;;;1.93;1.00;;;;;;;16.29;100.00;96875.03;5070323;27;103005;-62
2022/07/11 01:28:50;;;;;;;2.43;1.17;;;;;;;16.60;100.00;96873.03;5070161;27;102555;-62
2022/07/11 01:31:17;;;;;;;3.27;1.37;;;;;;;16.61;100.00;96875.44;5070676;27;101864;-62
2022/07/11 01:33:45;;;;;;;1.60;1.23;;;;;;;16.69;100.00;96874.88;5070764;27;102348;-62
2022/07/11 01:36:13;;;;;;;1.67;1.00;;;;;;;16.73;100.00;96870.53;5070020;27;102785;-62
2022/07/11 01:38:41;;;;;;;0.90;0.90;;;;;;;16.78;100.00;96875.09;5070152;27;101908;-62
2022/07/11 01:41:10;;;;;;;1.43;0.93;;;;;;;16.82;100.00;96870.75;5072950;27;102898;-62
2022/07/11 01:43:37;;;;;;;2.23;0.90;;;;;;;16.72;100.00;96877.00;5070375;27;101802;-62
2022/07/11 01:46:04;;;;;;;1.40;0.90;;;;;;;16.76;100.00;96870.00;5070336;27;102936;-62
2022/07/11 01:48:31;;;;;;;3.33;1.67;;;;;;;16.76;100.00;96866.50;5070000;27;103131;-62
2022/07/11 01:50:59;;;;;;;1.20;1.07;;;;;;;16.68;100.00;96869.78;5070359;27;102051;-62
2022/07/11 01:53:26;;;;;;;0.70;0.70;;;;;;;16.60;100.00;96865.78;5052383;27;103698;-62
2022/07/11 01:55:53;;;;;;;1.73;0.87;;;;;;;16.66;100.00;96866.56;5073132;27;102611;-62
2022/07/11 01:58:22;;;;;;;1.67;0.93;;;;;;;16.69;100.00;96866.03;5089684;27;101947;-62
2022/07/11 02:00:49;;;;;;;2.93;1.00;;;;;;;16.47;100.00;96865.59;5055333;27;105776;-62
2022/07/11 02:03:16;;;;;;;1.60;1.00;;;;;;;16.62;100.00;96863.63;5058178;27;104939;-62
2022/07/11 02:05:43;;;;;;;0.80;0.80;;;;;;;16.35;100.00;96857.03;5054989;27;104179;-62
2022/07/11 02:08:14;;;;;;;1.97;0.93;;;;;;;16.03;100.00;96856.59;5054693;27;105059;-62
2022/07/11 02:10:44;;;;;;;2.47;1.03;;;;;;;16.24;100.00;96855.47;5054772;27;101922;-62
2022/07/11 02:13:13;;;;;;;2.00;1.00;;;;;;;16.20;100.00;96862.44;5055188;27;105372;-62
2022/07/11 02:15:44;;;;;;;1.10;1.00;;;;;;;16.33;100.00;96857.28;5054214;27;105105;-62
2022/07/11 02:18:12;;;;;;;3.03;1.00;;;;;;;16.48;100.00;96859.13;5055173;27;101924;-62
2022/07/11 02:20:39;;;;;;;1.63;1.00;;;;;;;16.65;100.00;96862.28;5054959;27;105536;-62
2022/07/11 02:23:06;;;;;;;1.77;1.10;;;;;;;16.66;100.00;96869.25;5057720;27;105628;-62
2022/07/11 02:25:34;;;;;;;2.00;1.00;;;;;;;16.79;100.00;96865.97;5073501;27;102459;-62
2022/07/11 02:28:02;;;;;;;2.20;0.97;;;;;;;16.94;100.00;96860.50;5054106;27;103710;-62
2022/07/11 02:30:30;;;;;;;1.10;0.90;;;;;;;16.80;100.00;96864.88;5073443;27;101861;-62
2022/07/11 02:32:58;;;;;;;1.03;0.90;;;;;;;16.82;100.00;96860.84;5073167;27;102727;-62
2022/07/11 02:35:25;;;;;;;1.27;1.10;;;;;;;16.81;100.00;96858.41;5053960;27;103968;-62
2022/07/11 02:37:53;;;;;;;0.80;0.80;;;;;;;16.79;100.00;96856.00;5073449;27;101927;-62
2022/07/11 02:40:20;;;;;;;1.67;1.20;;;;;;;16.80;100.00;96856.81;5073171;27;102532;-62
2022/07/11 02:42:47;;;;;;;2.03;0.90;;;;;;;16.74;100.00;96864.09;5072629;27;103177;-62
2022/07/11 02:45:14;;;;;;;1.33;1.10;;;;;;;16.60;100.00;96854.25;5076572;27;101788;-62
2022/07/11 02:47:42;;;;;;;0.97;0.83;;;;;;;16.27;100.00;96853.03;5072404;27;102618;-62
2022/07/11 02:50:14;;;;;;;1.60;1.00;;;;;;;16.11;100.00;96856.03;5073139;27;101866;-62
2022/07/11 02:52:42;;;;;;;1.33;0.80;;;;;;;16.15;100.00;96857.09;5054520;27;106230;-62
2022/07/11 02:55:11;;;;;;;1.10;0.87;;;;;;;16.03;100.00;96859.28;5072377;27;102652;-62
2022/07/11 02:57:39;;;;;;;0.97;0.80;;;;;;;15.78;100.00;96857.47;5054118;27;101978;-62
2022/07/11 03:00:10;;;;;;;4.23;0.87;;;;;;;15.80;100.00;96860.69;5072964;27;102310;-62
2022/07/11 03:02:37;;;;;;;0.97;0.80;;;;;;;16.03;100.00;96856.59;5072436;27;102646;-62
2022/07/11 03:05:04;;;;;;;2.33;1.00;;;;;;;15.72;100.00;96861.25;5072158;27;101955;-62
2022/07/11 03:07:33;;;;;;;2.30;0.80;;;;;;;16.02;100.00;96858.47;5075537;27;102603;-62
2022/07/11 03:10:00;;;;;;;1.90;0.80;;;;;;;16.04;100.00;96856.34;5072754;27;101870;-62
2022/07/11 03:12:27;;;;;;;3.10;1.00;;;;;;;16.05;100.00;96857.94;5088413;27;105516;-62
2022/07/11 03:14:54;;;;;;;1.23;1.03;;;;;;;16.22;100.00;96857.59;5071980;27;102567;-62
2022/07/11 03:17:23;;;;;;;2.17;0.80;;;;;;;16.08;100.00;96852.00;5053977;27;101955;-62
2022/07/11 03:19:51;;;;;;;0.80;0.80;;;;;;;16.12;100.00;96857.63;5072312;27;102333;-62
2022/07/11 03:22:19;;;;;;;0.97;0.90;;;;;;;16.31;100.00;96864.03;5071971;27;102630;-62
2022/07/11 03:24:47;;;;;;;2.67;0.80;;;;;;;16.15;100.00;96862.47;5072478;27;101895;-62
2022/07/11 03:27:14;;;;;;;1.10;0.83;;;;;;;15.93;100.00;96843.22;5072706;27;102385;-62
2022/07/11 03:29:42;;;;;;;4.17;0.80;;;;;;;15.91;100.00;96854.22;5075202;27;101959;-62
2022/07/11 03:32:09;;;;;;;1.30;1.20;;;;;;;16.17;100.00;96852.25;5072546;27;102873;-62
2022/07/11 03:34:36;;;;;;;2.10;1.00;;;;;;;16.04;100.00;96855.53;5053150;27;105911;-62
2022/07/11 03:37:04;;;;;;;2.10;1.00;;;;;;;16.13;100.00;96859.25;5071994;27;102194;-62
2022/07/11 03:39:31;;;;;;;1.13;1.00;;;;;;;16.06;100.00;96854.19;5072361;27;102399;-62
2022/07/11 03:42:01;;;;;;;1.73;1.10;;;;;;;15.98;100.00;96853.94;5053108;27;105350;-62
2022/07/11 03:44:28;;;;;;;0.93;0.80;;;;;;;16.11;100.00;96858.72;5072063;27;101693;-62
2022/07/11 03:46:55;;;;;;;2.50;0.90;;;;;;;15.84;100.00;96855.56;5072032;27;102732;-62
2022/07/11 03:49:22;;;;;;;1.43;0.90;;;;;;;15.51;100.00;96856.97;5071433;27;102865;-62
2022/07/11 03:51:49;;;;;;;2.63;0.97;;;;;;;15.61;100.00;96856.97;5056843;27;101916;-62
2022/07/11 03:54:16;;;;;;;1.20;1.00;;;;;;;15.72;100.00;96861.25;5071525;27;102865;-62
2022/07/11 03:56:44;;;;;;;2.03;0.90;;;;;;;15.70;100.00;96857.22;5071590;27;101944;-62
2022/07/11 03:59:13;;;;;;;1.10;1.10;;;;;;;15.51;100.00;96851.63;5054129;27;102428;-62
2022/07/11 04:01:40;;;;;;;1.37;1.00;;;;;;;15.59;100.00;96855.63;5052672;27;103824;-62
2022/07/11 04:04:08;;;;;;;2.23;1.00;;;;;;;15.54;100.00;96858.31;5071862;27;101865;-62
2022/07/11 04:06:35;;;;;;;2.47;1.20;;;;;;;15.59;100.00;96856.41;5053602;27;102331;-62
2022/07/11 04:09:02;;;;;;;3.43;0.90;;;;;;;15.77;100.00;96853.19;5071329;27;102653;-62
2022/07/11 04:11:30;;;;;;;2.53;1.00;;;;;;;15.79;100.00;96859.06;5087088;27;102503;-62
2022/07/11 04:13:56;;;;;;;1.17;1.10;;;;;;;15.78;100.00;96856.66;5074689;27;102408;-62
2022/07/11 04:16:25;;;;;;;2.00;1.00;;;;;;;16.10;100.00;96849.06;5070414;27;102729;-62
2022/07/11 04:18:52;;;;;;;1.87;0.90;;;;;;;15.92;100.00;96855.03;5071797;27;102428;-62
2022/07/11 04:21:19;;;;;;;1.80;1.00;;;;;;;15.82;100.00;96855.03;5052280;27;105994;-62
2022/07/11 04:23:47;;;;;;;3.47;1.03;;;;;;;15.25;100.00;96852.66;5071726;27;101835;-62
2022/07/11 04:26:14;;;;;;;2.33;1.00;;;;;;;15.21;100.00;96862.31;5071421;27;102983;-62
2022/07/11 04:28:41;;;;;;;1.60;0.93;;;;;;;15.35;100.00;96857.25;5071122;27;102518;-62
2022/07/11 04:31:10;;;;;;;2.87;1.40;;;;;;;15.25;100.00;96862.56;5052736;27;102208;-62
2022/07/11 04:33:39;;;;;;;1.13;1.00;;;;;;;15.64;100.00;96866.34;5074293;27;102909;-62
2022/07/11 04:36:06;;;;;;;1.73;1.00;;;;;;;15.64;100.00;96861.78;5071280;27;101827;-62
2022/07/11 04:38:34;;;;;;;0.80;0.80;;;;;;;15.20;100.00;96865.28;5071389;27;102327;-62
2022/07/11 04:41:01;;;;;;;1.13;0.90;;;;;;;15.33;100.00;96867.44;5086527;27;106067;-62
2022/07/11 04:43:28;;;;;;;5.33;1.43;;;;;;;15.52;100.00;96865.81;5071469;27;101863;-62
2022/07/11 04:45:56;;;;;;;1.43;0.90;;;;;;;15.44;100.00;96861.00;5071111;27;102379;-62
2022/07/11 04:48:23;;;;;;;1.10;0.90;;;;;;;15.61;100.00;96864.19;5070496;27;102630;-61
2022/07/11 04:50:53;;;;;;;1.37;0.93;;;;;;;15.51;100.00;96862.34;5070968;27;101905;-61
2022/07/11 04:53:20;;;;;;;2.07;0.97;;;;;;;15.45;100.00;96862.59;5052682;27;103834;-61
2022/07/11 04:55:47;;;;;;;6.07;1.17;;;;;;;15.47;100.00;96863.94;5074071;27;102863;-61
2022/07/11 04:58:14;;;;;;;2.40;0.97;;;;;;;15.48;100.00;96878.16;5071232;27;102332;-61
2022/07/11 05:00:42;;;;;;;2.57;0.93;;;;;;;15.19;100.00;96871.69;5051673;27;104180;-61
2022/07/11 05:03:09;;;;;;;0.97;0.70;;;;;;;15.60;100.00;96874.09;5070970;27;101825;-61
2022/07/11 05:05:36;;;;;;;2.70;1.10;;;;;;;15.78;100.00;96872.75;5070808;27;102298;-61
2022/07/11 05:08:05;;;;;;;1.73;1.00;;;;;;;15.31;100.00;96880.28;5070041;27;104183;-61
2022/07/11 05:10:34;;;;;;;4.17;1.00;;;;;;;15.71;100.00;96885.63;5070031;27;102411;-61
2022/07/11 05:13:01;;;;;;;2.80;1.27;;;;;;;15.62;100.00;96879.19;5070976;27;102364;-61
2022/07/11 05:15:28;;;;;;;2.07;1.00;;;;;;;15.73;100.00;96880.78;5051725;27;104241;-61
2022/07/11 05:17:55;;;;;;;1.37;0.90;;;;;;;15.67;100.00;96887.25;5074475;27;101727;-61
2022/07/11 05:20:22;;;;;;;3.40;1.07;;;;;;;15.57;100.00;96882.69;5051380;27;105943;-61
2022/07/11 05:22:50;;;;;;;2.40;1.17;;;;;;;15.69;100.00;96887.78;5070771;27;101744;-61
2022/07/11 05:25:18;;;;;;;2.23;1.30;;;;;;;15.51;100.00;96885.66;5071007;27;102826;-61
2022/07/11 05:27:45;;;;;;;4.27;1.43;;;;;;;15.89;100.00;96885.06;5071032;27;102590;-61
2022/07/11 05:30:12;;;;;;;1.87;1.17;;;;;;;15.92;100.00;96895.25;5074416;27;101834;-61
2022/07/11 05:32:39;;;;;;;1.60;1.03;;;;;;;15.79;100.00;96893.13;5055722;27;103696;-61
2022/07/11 05:35:08;;;;;;;2.00;0.90;;;;;;;16.02;100.00;96895.25;5089024;27;105407;-61
2022/07/11 05:37:35;;;;;;;2.60;1.00;;;;;;;15.96;100.00;96891.75;5073967;27;101775;-61
2022/07/11 05:40:03;;;;;;;3.87;1.00;;;;;;;16.08;100.00;96896.84;5076955;27;102484;-61
2022/07/11 05:42:32;;;;;;;1.73;1.00;;;;;;;16.24;100.00;96898.41;5055332;27;102049;-61
2022/07/11 05:44:59;;;;;;;1.80;1.10;;;;;;;16.03;100.00;96896.84;5073872;27;102942;-61
2022/07/11 05:47:26;;;;;;;3.67;1.30;;;;;;;16.34;100.00;96903.72;5055019;27;105030;-61
2022/07/11 05:49:53;;;;;;;1.30;0.80;;;;;;;16.37;100.00;96900.50;5073995;27;101819;-61
2022/07/11 05:52:20;;;;;;;3.00;1.00;;;;;;;16.43;100.00;96907.47;5074124;27;102434;-61
2022/07/11 05:54:47;;;;;;;3.03;0.90;;;;;;;16.61;100.00;96905.00;5073126;27;102893;-61
2022/07/11 05:57:14;;;;;;;3.03;1.00;;;;;;;16.24;100.00;96903.78;5074084;27;101698;-61
2022/07/11 05:59:44;;;;;;;2.53;1.00;;;;;;;16.42;100.00;96905.88;5073592;27;102357;-61
2022/07/11 06:02:11;;;;;;;2.30;1.03;;;;;;;16.51;100.00;96906.94;5076309;27;103163;-61
2022/07/11 06:04:38;;;;;;;2.03;0.80;;;;;;;16.54;100.00;96909.88;5073196;27;102933;-61
2022/07/11 06:07:06;;;;;;;3.60;1.00;;;;;;;16.68;100.00;96915.44;5054948;27;102635;-61
2022/07/11 06:09:32;;;;;;;1.23;0.90;;;;;;;16.83;100.00;96915.34;5055230;27;101850;-61
2022/07/11 06:11:59;;;;;;;1.37;1.00;;;;;;;16.58;100.00;96907.44;5054813;27;103926;-61
2022/07/11 06:14:26;;;;;;;1.77;0.90;;;;;;;16.68;100.00;96915.44;5072559;27;104301;-61
2022/07/11 06:17:00;;;;;;;1.70;1.10;;;;;;;16.56;100.00;96906.91;5073450;27;101872;-61
2022/07/11 06:19:28;;;;;;;1.90;1.10;;;;;;;16.48;100.00;96910.16;5055141;27;105070;-61
2022/07/11 06:21:55;;;;;;;1.80;0.93;;;;;;;16.32;100.00;96909.38;5054310;27;105456;-61
2022/07/11 06:24:22;;;;;;;1.70;0.70;;;;;;;16.62;100.00;96901.22;5058429;27;101735;-61
2022/07/11 06:26:50;;;;;;;1.57;0.80;;;;;;;16.80;100.00;96902.47;5072961;27;102594;-61
2022/07/11 06:29:17;;;;;;;1.10;0.80;;;;;;;16.93;100.00;96899.19;5089086;27;101948;-61
2022/07/11 06:31:44;;;;;;;1.40;0.77;;;;;;;16.95;100.00;96905.88;5073239;27;102445;-61
2022/07/11 06:34:12;;;;;;;3.47;0.80;;;;;;;17.10;100.00;96904.97;5054244;27;105447;-61
2022/07/11 06:36:39;;;;;;;1.53;0.80;;;;;;;17.27;100.00;96903.53;5073283;27;101816;-61
2022/07/11 06:39:06;;;;;;;1.47;0.80;;;;;;;16.88;100.00;96899.19;5072352;27;102337;-61
2022/07/11 06:41:32;;;;;;;1.33;0.80;;;;;;;17.47;100.00;96908.78;5072755;27;102854;-61
2022/07/11 06:44:00;;;;;;;2.43;0.90;;;;;;;17.77;100.00;96900.44;5076593;27;101891;-61
2022/07/11 06:46:28;;;;;;;1.87;0.70;;;;;;;17.55;100.00;96904.69;5072364;27;102819;-61
2022/07/11 06:48:55;;;;;;;1.53;0.70;;;;;;;17.43;100.00;96904.25;5088906;27;101798;-61
2022/07/11 06:51:24;;;;;;;3.87;0.90;;;;;;;17.36;100.00;96901.84;5054296;27;103884;-61
2022/07/11 06:53:53;;;;;;;1.27;0.90;;;;;;;17.67;100.00;96905.13;5054010;27;105354;-61
2022/07/11 06:56:20;;;;;;;1.47;0.70;;;;;;;17.87;100.00;96907.66;5072863;27;101796;-61
2022/07/11 06:58:47;;;;;;;2.17;0.70;;;;;;;18.12;100.00;96910.06;5072890;27;102477;-61
2022/07/11 07:01:14;;;;;;;2.20;1.00;;;;;;;18.50;100.00;96895.69;5072023;27;102627;-61
2022/07/11 07:03:41;;;;;;;4.43;1.03;;;;;;;18.05;100.00;96901.53;5073107;27;101831;-61
2022/07/11 07:06:09;;;;;;;4.83;1.00;;;;;;;18.18;100.00;96901.66;5091254;27;103634;-61
2022/07/11 07:08:37;;;;;;;1.63;0.77;;;;;;;18.44;100.00;96902.22;5054377;27;102266;-61
2022/07/11 07:11:05;;;;;;;1.60;0.80;;;;;;;18.33;100.00;96900.72;5037080;27;104234;-61
2022/07/11 07:13:32;;;;;;;1.30;0.73;;;;;;;17.94;100.00;96900.81;5072047;27;103116;-61
2022/07/11 07:16:00;;;;;;;3.47;0.87;;;;;;;18.17;100.00;96901.94;5053981;27;102000;-61
2022/07/11 07:18:27;;;;;;;0.87;0.73;;;;;;;18.29;100.00;96899.66;5072908;27;102584;-61
2022/07/11 07:20:54;;;;;;;1.00;0.60;;;;;;;18.15;100.00;96896.84;5071690;27;102576;-61
2022/07/11 07:23:22;;;;;;;0.90;0.80;;;;;;;18.50;100.00;96899.19;5054186;27;102034;-61
2022/07/11 07:25:50;;;;;;;1.53;0.73;;;;;;;18.33;100.00;96900.72;5072506;27;102403;-61
2022/07/11 07:28:17;;;;;;;1.47;0.80;;;;;;;18.52;100.00;96893.50;5056966;27;106332;-61
2022/07/11 07:30:47;;;;;;;2.57;0.60;;;;;;;18.79;100.00;96896.38;5072519;27;102711;-61
2022/07/11 07:33:14;;;;;;;2.57;0.70;;;;;;;18.97;100.00;96895.59;5071892;27;102507;-61
2022/07/11 07:35:41;;;;;;;2.03;0.97;;;;;;;19.07;100.00;96900.88;5053715;27;102053;-61
2022/07/11 07:38:08;;;;;;;2.63;0.60;;;;;;;19.23;100.00;96899.59;5053982;27;104991;-61
2022/07/11 07:40:35;;;;;;;1.00;0.83;;;;;;;18.96;100.00;96891.31;5053455;27;103100;-61
2022/07/11 07:43:06;;;;;;;2.47;0.80;;;;;;;19.00;100.00;96903.91;5071703;27;102128;-61
2022/07/11 07:45:34;;;;;;;1.93;0.70;;;;;;;19.28;100.00;96892.19;5071738;27;102422;-61
2022/07/11 07:48:01;;;;;;;2.23;0.77;;;;;;;19.32;100.00;96887.03;5052554;27;106855;-61
2022/07/11 07:50:28;;;;;;;1.70;0.60;;;;;;;19.38;100.00;96889.34;5074513;27;101846;-61
2022/07/11 07:52:55;;;;;;;1.57;0.70;;;;;;;19.34;100.00;96893.72;5070479;27;102517;-61
2022/07/11 07:55:23;;;;;;;0.80;0.60;;;;;;;19.42;95.39;96886.88;5053269;27;102158;-61
2022/07/11 07:57:50;;;;;;;1.20;0.70;;;;;;;19.27;75.86;96885.22;5052386;27;106144;-61
2022/07/11 08:03:07;;;;;;;0.57;0.40;;;;;;;19.29;80.74;96885.72;5053125;27;101746;-61
2022/07/11 08:05:34;;;;;;;1.53;0.80;;;;;;;19.85;92.07;96885.59;5051499;27;105516;-61
2022/07/11 08:08:03;;;;;;;1.90;0.40;;;;;;;19.70;91.33;96877.75;5050639;27;106206;-61
2022/07/11 08:10:30;;;;;;;1.63;0.57;;;;;;;19.53;66.65;96883.72;5073998;27;102026;-61
2022/07/11 08:12:57;;;;;;;0.53;0.50;;;;;;;19.56;67.86;96875.03;5054095;27;105837;-61
2022/07/11 08:15:26;;;;;;;1.13;0.50;;;;;;;19.23;64.04;96886.88;5051378;27;101985;-61
2022/07/11 08:17:53;;;;;;;1.03;0.50;;;;;;;19.62;78.07;96875.75;5051351;27;105275;-61
2022/07/11 08:20:20;;;;;;;0.80;0.70;;;;;;;19.68;75.82;96877.25;5047945;27;105023;-61
2022/07/11 08:22:51;;;;;;;0.60;0.50;;;;;;;19.75;72.51;96880.38;5051495;27;101814;-61
2022/07/11 08:25:18;;;;;;;4.23;0.73;;;;;;;19.64;76.96;96876.25;5051121;27;105047;-61
2022/07/11 08:27:45;;;;;;;0.80;0.60;;;;;;;19.39;76.56;96882.03;5050920;27;105245;-61
2022/07/11 08:30:13;;;;;;;1.37;0.70;;;;;;;19.27;86.15;96879.00;5051190;27;102038;-61
2022/07/11 08:32:41;;;;;;;1.03;0.60;;;;;;;19.75;80.95;96865.00;5051242;27;105482;-61
2022/07/11 08:35:11;;;;;;;0.53;0.40;;;;;;;20.57;75.80;96876.69;5072478;27;102099;-61
2022/07/11 08:37:38;;;;;;;0.90;0.57;;;;;;;20.87;66.15;96876.06;5070184;27;102880;-61
2022/07/11 08:40:06;;;;;;;0.87;0.50;;;;;;;20.55;66.46;96876.19;5069274;27;102716;-61
2022/07/11 08:42:41;;;;;;;0.30;0.30;;;;;;;20.08;60.88;96873.88;5051563;27;102381;-61
2022/07/11 08:45:11;;;;;;;2.53;0.33;;;;;;;19.86;66.26;96871.81;5049890;27;104962;-61
2022/07/11 08:47:39;;;;;;;0.77;0.30;;;;;;;19.39;64.53;96882.03;5050861;27;105476;-61
2022/07/11 08:50:10;;;;;;;0.60;0.40;;;;;;;19.89;66.60;96883.91;5051262;27;101916;-61
2022/07/11 08:52:38;;;;;;;0.40;0.40;;;;;;;19.86;65.40;96877.22;5051281;27;105712;-61
2022/07/11 08:55:06;;;;;;;0.43;0.43;;;;;;;19.93;67.55;96874.09;5054114;27;105386;-61
2022/07/11 08:57:35;;;;;;;0.60;0.50;;;;;;;20.41;70.01;96872.69;5069741;27;102348;-61
2022/07/11 09:00:03;;;;;;;0.67;0.40;;;;;;;20.67;64.93;96882.69;5047971;27;105735;-60
2022/07/11 09:02:32;;;;;;;0.40;0.40;;;;;;;20.89;64.49;96869.28;5050936;27;102027;-61
2022/07/11 09:04:59;;;;;;;0.87;0.37;;;;;;;20.91;63.21;96872.47;5050970;27;105526;-61
2022/07/11 09:07:28;;;;;;;0.30;0.30;;;;;;;21.06;61.84;96871.31;5069259;27;103102;-61
2022/07/11 09:09:56;;;;;;;0.90;0.50;;;;;;;20.97;62.19;96867.72;5051100;27;101919;-61
2022/07/11 09:12:22;;;;;;;1.50;0.50;;;;;;;20.66;67.83;96872.19;5050117;27;105291;-61
2022/07/11 09:14:52;;;;;;;1.20;0.40;;;;;;;20.51;69.74;96875.19;5050586;27;103602;-61
2022/07/11 09:17:26;;;;;;;0.70;0.50;;;;;;;20.64;66.39;96871.66;5051905;27;102088;-61
2022/07/11 09:19:54;;;;;;;4.00;0.50;;;;;;;21.24;68.47;96875.75;5076249;27;105589;-61
2022/07/11 09:25:23;;;;;;;0.80;0.47;;;;;;;21.83;60.82;96878.13;5048703;27;105619;-61
2022/07/11 09:27:52;;;;;;;1.30;0.50;;;;;;;21.79;59.31;96875.25;5049244;27;105386;-61
2022/07/11 09:30:23;;;;;;;0.40;0.40;;;;;;;21.97;55.88;96876.94;5069296;27;101945;-61
2022/07/11 09:32:58;;;;;;;0.60;0.50;;;;;;;21.99;63.58;96868.50;5069260;27;102368;-61
2022/07/11 09:35:27;;;;;;;0.40;0.40;;;;;;;21.74;61.11;96874.59;5066476;27;102556;-61
2022/07/11 09:37:55;;;;;;;1.07;0.40;;;;;;;21.56;57.31;96875.53;5050835;27;101935;-61
2022/07/11 09:40:25;;;;;;;2.07;0.40;;;;;;;21.48;63.47;96868.94;5069340;27;102902;-61
2022/07/11 09:42:54;;;;;;;3.00;0.80;;;;;;;21.48;65.67;96874.38;5069304;27;102198;-61
2022/07/11 09:45:23;;;;;;;1.27;0.53;;;;;;;20.96;59.77;96869.66;5066645;27;103536;-61
2022/07/11 09:47:52;;;;;;;2.03;0.33;;;;;;;20.80;69.42;96868.34;5069598;27;104043;-61
2022/07/11 09:50:20;;;;;;;1.20;0.50;;;;;;;20.77;64.67;96877.03;5069951;27;101792;-61
2022/07/11 09:53:04;;;;;;;1.03;0.50;;;;;;;21.42;61.51;96874.81;5069890;27;102386;-61
2022/07/11 09:55:33;;;;;;;0.83;0.50;;;;;;;22.02;67.14;96876.03;5070105;27;102550;-61
2022/07/11 09:58:05;;;;;;;0.30;0.30;;;;;;;20.61;66.43;96872.28;5069872;27;101821;-61
2022/07/11 10:00:33;;;;;;;1.00;0.40;;;;;;;20.33;69.48;96870.69;5052071;27;105041;-61
2022/07/11 10:03:01;;;;;;;1.80;0.60;;;;;;;20.45;70.70;96873.69;5054718;27;105760;-61
2022/07/11 10:05:28;;;;;;;1.03;0.43;;;;;;;20.99;67.11;96873.66;5070063;27;103314;-61
2022/07/11 10:07:55;;;;;;;2.20;0.40;;;;;;;20.45;64.80;96869.09;5051309;27;103809;-61
2022/07/11 10:10:22;;;;;;;1.80;0.50;;;;;;;20.30;74.00;96874.78;5051706;27;102047;-61
2022/07/11 10:12:51;;;;;;;2.00;0.40;;;;;;;21.01;66.75;96866.84;5070083;27;102897;-61
2022/07/11 10:15:22;;;;;;;0.80;0.50;;;;;;;21.26;66.14;96879.75;5071260;27;103085;-61
2022/07/11 10:17:59;;;;;;;0.53;0.40;;;;;;;20.63;72.33;96870.88;5073836;27;101738;-61
2022/07/11 10:20:33;;;;;;;1.87;0.50;;;;;;;21.00;71.33;96867.94;5073677;27;102904;-61
2022/07/11 10:23:13;;;;;;;0.80;0.40;;;;;;;21.24;72.05;96867.66;5072952;27;102668;-61
2022/07/11 10:25:46;;;;;;;0.67;0.60;;;;;;;20.86;63.49;96869.84;5077236;27;101634;-61
2022/07/11 10:28:23;;;;;;;1.10;0.40;;;;;;;21.19;62.55;96867.78;5088804;27;103966;-61
2022/07/11 10:30:52;;;;;;;1.43;0.70;;;;;;;21.51;65.47;96867.53;5073699;27;101746;-61
2022/07/11 10:33:20;;;;;;;1.27;0.60;;;;;;;21.34;62.08;96864.72;5054980;27;105364;-61
2022/07/11 10:35:49;;;;;;;0.83;0.37;;;;;;;21.74;61.08;96874.59;5072853;27;102559;-61
2022/07/11 10:38:17;;;;;;;1.10;0.60;;;;;;;21.20;62.03;96872.09;5073645;27;101891;-61
2022/07/11 10:40:47;;;;;;;0.40;0.40;;;;;;;21.20;65.51;96874.81;5054780;27;105112;-61
2022/07/11 10:43:32;;;;;;;0.73;0.50;;;;;;;21.29;64.95;96872.94;5054158;27;105909;-61
2022/07/11 10:46:02;;;;;;;1.30;0.50;;;;;;;21.00;73.21;96875.25;5076632;27;101685;-61
2022/07/11 10:48:31;;;;;;;0.83;0.40;;;;;;;20.92;65.07;96873.28;5072765;27;103075;-61
2022/07/11 10:51:17;;;;;;;2.90;0.60;;;;;;;21.91;67.47;96880.13;5054452;27;101890;-61
2022/07/11 10:53:47;;;;;;;1.20;0.60;;;;;;;21.82;59.25;96880.06;5073186;27;102878;-61
2022/07/11 10:56:35;;;;;;;0.40;0.40;;;;;;;22.17;58.28;96875.63;5072533;27;102785;-61
2022/07/11 10:59:13;;;;;;;1.97;0.60;;;;;;;21.89;60.49;96885.84;5054588;27;102181;-61
2022/07/11 11:02:19;;;;;;;1.07;0.50;;;;;;;21.73;63.50;96879.19;5054697;27;105307;-61
2022/07/11 11:04:49;;;;;;;0.97;0.50;;;;;;;21.83;66.59;96878.94;5072138;27;101945;-61
2022/07/11 11:07:41;;;;;;;0.40;0.30;;;;;;;22.25;64.48;96880.28;5054335;27;102037;-61
2022/07/11 11:10:46;;;;;;;0.83;0.40;;;;;;;21.55;59.45;96876.66;5060227;27;103998;-61
2022/07/11 11:13:15;;;;;;;0.40;0.40;;;;;;;21.21;66.64;96876.38;5088608;27;101892;-61
2022/07/11 11:15:46;;;;;;;0.93;0.47;;;;;;;21.92;68.40;96877.09;5072622;27;102679;-61
2022/07/11 11:18:36;;;;;;;1.23;0.40;;;;;;;21.98;66.35;96869.63;5053456;27;104238;-61
2022/07/11 11:21:20;;;;;;;0.63;0.50;;;;;;;22.36;64.31;96881.59;5072654;27;102253;-61
2022/07/11 11:24:02;;;;;;;0.77;0.40;;;;;;;21.72;58.76;96874.91;5072596;27;102297;-61
2022/07/11 11:26:44;;;;;;;1.27;0.60;;;;;;;22.20;67.13;96873.09;5071745;27;104223;-61
2022/07/11 11:29:11;;;;;;;2.73;0.60;;;;;;;22.06;86.06;96868.88;5072932;27;101738;-61
2022/07/11 11:31:41;;;;;;;1.97;0.50;;;;;;;22.11;80.33;96874.16;5072335;27;102455;-61
2022/07/11 11:34:08;;;;;;;1.63;0.57;;;;;;;22.40;72.71;96877.16;5056654;27;105861;-61